sensor_id;sensor_type;location;lat;lon;timestamp;temperature;humidity
14101;DHT22;7127;49.372;8.166;2023-11-21T00:00:20;14.30;59.10
14101;DHT22;7127;49.372;8.166;2023-11-21T00:02:47;14.20;59.10
14101;DHT22;7127;49.372;8.166;2023-11-21T00:05:14;14.30;59.10
14101;DHT22;7127;49.372;8.166;2023-11-21T00:07:43;14.30;59.10
14101;DHT22;7127;49.372;8.166;2023-11-21T00:10:10;14.40;59.20
14101;DHT22;7127;49.372;8.166;2023-11-21T00:12:37;14.20;59.00
14101;DHT22;7127;49.372;8.166;2023-11-21T00:15:08;14.30;59.10
14101;DHT22;7127;49.372;8.166;2023-11-21T00:17:36;14.30;59.10
14101;DHT22;7127;49.372;8.166;2023-11-21T00:20:03;14.30;59.10
14101;DHT22;7127;49.372;8.166;2023-11-21T00:22:32;14.30;59.10
14101;DHT22;7127;49.372;8.166;2023-11-21T00:25:00;14.30;59.10
14101;DHT22;7127;49.372;8.166;2023-11-21T00:27:29;14.30;59.10
14101;DHT22;7127;49.372;8.166;2023-11-21T00:29:55;14.30;59.10
14101;DHT22;7127;49.372;8.166;2023-11-21T00:32:22;14.30;59.10
14101;DHT22;7127;49.372;8.166;2023-11-21T00:34:49;14.30;59.10
14101;DHT22;7127;49.372;8.166;2023-11-21T00:37:15;14.30;59.10
14101;DHT22;7127;49.372;8.166;2023-11-21T00:39:42;14.30;59.20
14101;DHT22;7127;49.372;8.166;2023-11-21T00:42:11;14.30;59.10
14101;DHT22;7127;49.372;8.166;2023-11-21T00:44:37;14.30;59.10
14101;DHT22;7127;49.372;8.166;2023-11-21T00:47:05;14.30;59.10
14101;DHT22;7127;49.372;8.166;2023-11-21T00:49:31;14.30;59.00
14101;DHT22;7127;49.372;8.166;2023-11-21T00:51:58;14.20;59.00
14101;DHT22;7127;49.372;8.166;2023-11-21T00:54:27;14.20;59.00
14101;DHT22;7127;49.372;8.166;2023-11-21T00:56:54;14.20;59.00
14101;DHT22;7127;49.372;8.166;2023-11-21T00:59:22;14.20;59.00
14101;DHT22;7127;49.372;8.166;2023-11-21T01:01:49;14.10;59.10
14101;DHT22;7127;49.372;8.166;2023-11-21T01:04:16;14.10;59.10
14101;DHT22;7127;49.372;8.166;2023-11-21T01:06:43;14.10;59.30
14101;DHT22;7127;49.372;8.166;2023-11-21T01:09:10;14.00;59.30
14101;DHT22;7127;49.372;8.166;2023-11-21T01:11:38;14.00;59.40
14101;DHT22;7127;49.372;8.166;2023-11-21T01:14:05;13.90;59.40
14101;DHT22;7127;49.372;8.166;2023-11-21T01:16:33;13.90;59.60
14101;DHT22;7127;49.372;8.166;2023-11-21T01:19:00;13.90;59.60
14101;DHT22;7127;49.372;8.166;2023-11-21T01:21:27;13.90;59.60
14101;DHT22;7127;49.372;8.166;2023-11-21T01:23:54;13.90;59.80
14101;DHT22;7127;49.372;8.166;2023-11-21T01:26:21;13.90;59.90
14101;DHT22;7127;49.372;8.166;2023-11-21T01:28:48;13.80;59.90
14101;DHT22;7127;49.372;8.166;2023-11-21T01:31:15;13.90;60.00
14101;DHT22;7127;49.372;8.166;2023-11-21T01:33:43;13.90;60.10
14101;DHT22;7127;49.372;8.166;2023-11-21T01:36:10;13.90;60.00
14101;DHT22;7127;49.372;8.166;2023-11-21T01:38:37;14.00;60.00
14101;DHT22;7127;49.372;8.166;2023-11-21T01:41:05;14.10;60.10
14101;DHT22;7127;49.372;8.166;2023-11-21T01:43:31;14.00;60.00
14101;DHT22;7127;49.372;8.166;2023-11-21T01:45:58;14.00;60.00
14101;DHT22;7127;49.372;8.166;2023-11-21T01:48:26;14.00;60.00
14101;DHT22;7127;49.372;8.166;2023-11-21T01:50:55;14.10;60.10
14101;DHT22;7127;49.372;8.166;2023-11-21T01:53:23;14.10;60.10
14101;DHT22;7127;49.372;8.166;2023-11-21T01:55:51;14.10;60.00
14101;DHT22;7127;49.372;8.166;2023-11-21T01:58:19;14.10;59.90
14101;DHT22;7127;49.372;8.166;2023-11-21T02:00:47;14.20;60.00
14101;DHT22;7127;49.372;8.166;2023-11-21T02:03:16;14.10;59.90
14101;DHT22;7127;49.372;8.166;2023-11-21T02:05:43;14.10;59.90
14101;DHT22;7127;49.372;8.166;2023-11-21T02:08:11;14.10;59.90
14101;DHT22;7127;49.372;8.166;2023-11-21T02:10:37;14.10;59.90
14101;DHT22;7127;49.372;8.166;2023-11-21T02:13:04;14.10;59.90
14101;DHT22;7127;49.372;8.166;2023-11-21T02:15:31;14.20;60.70
14101;DHT22;7127;49.372;8.166;2023-11-21T02:17:58;14.20;60.00
14101;DHT22;7127;49.372;8.166;2023-11-21T02:20:26;14.20;60.10
14101;DHT22;7127;49.372;8.166;2023-11-21T02:22:56;14.20;60.00
14101;DHT22;7127;49.372;8.166;2023-11-21T02:25:24;14.20;60.10
14101;DHT22;7127;49.372;8.166;2023-11-21T02:27:53;14.20;60.10
14101;DHT22;7127;49.372;8.166;2023-11-21T02:30:20;14.20;60.10
14101;DHT22;7127;49.372;8.166;2023-11-21T02:32:47;14.20;60.00
14101;DHT22;7127;49.372;8.166;2023-11-21T02:35:14;14.30;60.00
14101;DHT22;7127;49.372;8.166;2023-11-21T02:37:41;14.20;59.80
14101;DHT22;7127;49.372;8.166;2023-11-21T02:40:10;14.20;59.90
14101;DHT22;7127;49.372;8.166;2023-11-21T02:42:39;14.20;59.90
14101;DHT22;7127;49.372;8.166;2023-11-21T02:45:07;14.30;60.00
14101;DHT22;7127;49.372;8.166;2023-11-21T02:47:33;14.30;59.90
14101;DHT22;7127;49.372;8.166;2023-11-21T02:50:00;14.30;60.00
14101;DHT22;7127;49.372;8.166;2023-11-21T02:52:27;14.30;60.10
14101;DHT22;7127;49.372;8.166;2023-11-21T02:54:54;14.20;60.00
14101;DHT22;7127;49.372;8.166;2023-11-21T02:57:22;14.30;60.10
14101;DHT22;7127;49.372;8.166;2023-11-21T02:59:48;14.30;60.20
14101;DHT22;7127;49.372;8.166;2023-11-21T03:02:15;14.30;60.20
14101;DHT22;7127;49.372;8.166;2023-11-21T03:04:42;14.20;60.20
14101;DHT22;7127;49.372;8.166;2023-11-21T03:07:09;14.30;60.30
14101;DHT22;7127;49.372;8.166;2023-11-21T03:09:36;14.20;60.20
14101;DHT22;7127;49.372;8.166;2023-11-21T03:12:04;14.30;60.30
14101;DHT22;7127;49.372;8.166;2023-11-21T03:14:32;14.20;60.10
14101;DHT22;7127;49.372;8.166;2023-11-21T03:16:59;14.20;60.20
14101;DHT22;7127;49.372;8.166;2023-11-21T03:19:25;14.20;60.30
14101;DHT22;7127;49.372;8.166;2023-11-21T03:21:52;14.20;60.40
14101;DHT22;7127;49.372;8.166;2023-11-21T03:24:19;14.30;60.50
14101;DHT22;7127;49.372;8.166;2023-11-21T03:26:48;14.20;60.50
14101;DHT22;7127;49.372;8.166;2023-11-21T03:29:15;14.30;60.50
14101;DHT22;7127;49.372;8.166;2023-11-21T03:31:43;14.20;60.40
14101;DHT22;7127;49.372;8.166;2023-11-21T03:34:15;14.20;60.40
14101;DHT22;7127;49.372;8.166;2023-11-21T03:36:43;14.20;60.60
14101;DHT22;7127;49.372;8.166;2023-11-21T03:39:11;14.20;61.30
14101;DHT22;7127;49.372;8.166;2023-11-21T03:41:38;14.30;60.60
14101;DHT22;7127;49.372;8.166;2023-11-21T03:44:05;14.20;60.40
14101;DHT22;7127;49.372;8.166;2023-11-21T03:46:32;14.30;60.60
14101;DHT22;7127;49.372;8.166;2023-11-21T03:49:00;14.20;60.30
14101;DHT22;7127;49.372;8.166;2023-11-21T03:51:26;14.30;60.50
14101;DHT22;7127;49.372;8.166;2023-11-21T03:53:53;14.10;60.50
14101;DHT22;7127;49.372;8.166;2023-11-21T03:56:20;14.20;60.40
14101;DHT22;7127;49.372;8.166;2023-11-21T03:58:48;14.20;60.40
14101;DHT22;7127;49.372;8.166;2023-11-21T04:01:20;14.20;60.40
14101;DHT22;7127;49.372;8.166;2023-11-21T04:03:48;14.30;60.70
14101;DHT22;7127;49.372;8.166;2023-11-21T04:06:16;14.20;60.60
14101;DHT22;7127;49.372;8.166;2023-11-21T04:08:43;14.20;60.70
14101;DHT22;7127;49.372;8.166;2023-11-21T04:11:10;14.10;60.60
14101;DHT22;7127;49.372;8.166;2023-11-21T04:13:37;14.20;60.70
14101;DHT22;7127;49.372;8.166;2023-11-21T04:16:05;14.20;60.90
14101;DHT22;7127;49.372;8.166;2023-11-21T04:18:32;14.20;60.90
14101;DHT22;7127;49.372;8.166;2023-11-21T04:20:59;14.10;60.80
14101;DHT22;7127;49.372;8.166;2023-11-21T04:23:28;14.20;60.90
14101;DHT22;7127;49.372;8.166;2023-11-21T04:25:55;14.10;60.90
14101;DHT22;7127;49.372;8.166;2023-11-21T04:28:23;14.20;60.90
14101;DHT22;7127;49.372;8.166;2023-11-21T04:30:50;14.40;61.10
14101;DHT22;7127;49.372;8.166;2023-11-21T04:33:16;14.20;60.90
14101;DHT22;7127;49.372;8.166;2023-11-21T04:35:43;14.30;61.00
14101;DHT22;7127;49.372;8.166;2023-11-21T04:38:10;14.20;60.80
14101;DHT22;7127;49.372;8.166;2023-11-21T04:40:38;14.30;60.80
14101;DHT22;7127;49.372;8.166;2023-11-21T04:43:04;14.20;60.70
14101;DHT22;7127;49.372;8.166;2023-11-21T04:45:31;14.20;60.70
14101;DHT22;7127;49.372;8.166;2023-11-21T04:47:58;14.20;60.60
14101;DHT22;7127;49.372;8.166;2023-11-21T04:50:25;14.10;60.40
14101;DHT22;7127;49.372;8.166;2023-11-21T04:52:52;14.20;60.60
14101;DHT22;7127;49.372;8.166;2023-11-21T04:55:19;14.10;60.70
14101;DHT22;7127;49.372;8.166;2023-11-21T04:57:47;14.10;60.80
14101;DHT22;7127;49.372;8.166;2023-11-21T05:00:14;14.20;61.00
14101;DHT22;7127;49.372;8.166;2023-11-21T05:02:41;14.10;60.90
14101;DHT22;7127;49.372;8.166;2023-11-21T05:05:09;14.10;61.00
14101;DHT22;7127;49.372;8.166;2023-11-21T05:07:38;14.10;61.80
14101;DHT22;7127;49.372;8.166;2023-11-21T05:10:05;14.20;61.20
14101;DHT22;7127;49.372;8.166;2023-11-21T05:12:36;14.10;61.00
14101;DHT22;7127;49.372;8.166;2023-11-21T05:15:06;14.10;61.10
14101;DHT22;7127;49.372;8.166;2023-11-21T05:17:35;14.10;61.10
14101;DHT22;7127;49.372;8.166;2023-11-21T05:20:02;14.10;61.20
14101;DHT22;7127;49.372;8.166;2023-11-21T05:22:33;14.10;61.30
14101;DHT22;7127;49.372;8.166;2023-11-21T05:25:01;14.10;61.10
14101;DHT22;7127;49.372;8.166;2023-11-21T05:27:28;14.10;61.10
14101;DHT22;7127;49.372;8.166;2023-11-21T05:29:55;14.10;61.20
14101;DHT22;7127;49.372;8.166;2023-11-21T05:32:23;14.20;61.30
14101;DHT22;7127;49.372;8.166;2023-11-21T05:34:50;14.40;61.40
14101;DHT22;7127;49.372;8.166;2023-11-21T05:37:16;14.10;61.00
14101;DHT22;7127;49.372;8.166;2023-11-21T05:39:44;14.10;60.90
14101;DHT22;7127;49.372;8.166;2023-11-21T05:42:10;14.20;60.90
14101;DHT22;7127;49.372;8.166;2023-11-21T05:44:37;14.10;60.90
14101;DHT22;7127;49.372;8.166;2023-11-21T05:47:07;14.20;60.70
14101;DHT22;7127;49.372;8.166;2023-11-21T05:49:35;14.10;60.80
14101;DHT22;7127;49.372;8.166;2023-11-21T05:52:02;14.10;60.60
14101;DHT22;7127;49.372;8.166;2023-11-21T05:54:29;14.10;60.60
14101;DHT22;7127;49.372;8.166;2023-11-21T05:56:56;14.00;60.60
14101;DHT22;7127;49.372;8.166;2023-11-21T05:59:23;14.10;60.90
14101;DHT22;7127;49.372;8.166;2023-11-21T06:01:50;13.90;60.70
14101;DHT22;7127;49.372;8.166;2023-11-21T06:04:17;13.90;60.60
14101;DHT22;7127;49.372;8.166;2023-11-21T06:06:45;13.80;60.70
14101;DHT22;7127;49.372;8.166;2023-11-21T06:09:12;13.80;60.60
14101;DHT22;7127;49.372;8.166;2023-11-21T06:11:39;13.80;60.60
14101;DHT22;7127;49.372;8.166;2023-11-21T06:14:05;13.70;60.50
14101;DHT22;7127;49.372;8.166;2023-11-21T06:16:33;13.80;60.80
14101;DHT22;7127;49.372;8.166;2023-11-21T06:19:00;13.70;60.80
14101;DHT22;7127;49.372;8.166;2023-11-21T06:21:27;13.70;60.80
14101;DHT22;7127;49.372;8.166;2023-11-21T06:23:54;13.60;60.90
14101;DHT22;7127;49.372;8.166;2023-11-21T06:26:22;13.60;60.90
14101;DHT22;7127;49.372;8.166;2023-11-21T06:28:49;13.50;60.80
14101;DHT22;7127;49.372;8.166;2023-11-21T06:31:18;13.50;60.80
14101;DHT22;7127;49.372;8.166;2023-11-21T06:33:44;13.50;60.80
14101;DHT22;7127;49.372;8.166;2023-11-21T06:36:12;13.40;60.70
14101;DHT22;7127;49.372;8.166;2023-11-21T06:38:38;13.40;60.70
14101;DHT22;7127;49.372;8.166;2023-11-21T06:41:07;13.50;60.80
14101;DHT22;7127;49.372;8.166;2023-11-21T06:43:33;13.50;60.80
14101;DHT22;7127;49.372;8.166;2023-11-21T06:46:01;13.40;60.70
14101;DHT22;7127;49.372;8.166;2023-11-21T06:48:30;13.50;60.90
14101;DHT22;7127;49.372;8.166;2023-11-21T06:50:56;13.50;60.80
14101;DHT22;7127;49.372;8.166;2023-11-21T06:53:23;13.50;60.80
14101;DHT22;7127;49.372;8.166;2023-11-21T06:55:50;13.40;60.70
14101;DHT22;7127;49.372;8.166;2023-11-21T06:58:18;13.50;60.80
14101;DHT22;7127;49.372;8.166;2023-11-21T07:00:44;13.50;60.80
14101;DHT22;7127;49.372;8.166;2023-11-21T07:03:14;13.40;60.70
14101;DHT22;7127;49.372;8.166;2023-11-21T07:05:40;13.40;60.60
14101;DHT22;7127;49.372;8.166;2023-11-21T07:08:07;13.40;60.70
14101;DHT22;7127;49.372;8.166;2023-11-21T07:10:34;13.40;60.60
14101;DHT22;7127;49.372;8.166;2023-11-21T07:13:02;13.30;60.60
14101;DHT22;7127;49.372;8.166;2023-11-21T07:15:30;13.30;60.60
14101;DHT22;7127;49.372;8.166;2023-11-21T07:17:58;13.30;60.70
14101;DHT22;7127;49.372;8.166;2023-11-21T07:20:24;13.20;60.80
14101;DHT22;7127;49.372;8.166;2023-11-21T07:22:52;13.20;60.70
14101;DHT22;7127;49.372;8.166;2023-11-21T07:25:19;13.10;60.90
14101;DHT22;7127;49.372;8.166;2023-11-21T07:27:47;13.20;61.10
14101;DHT22;7127;49.372;8.166;2023-11-21T07:30:15;13.10;61.40
14101;DHT22;7127;49.372;8.166;2023-11-21T07:32:43;13.10;61.30
14101;DHT22;7127;49.372;8.166;2023-11-21T07:35:13;13.10;61.30
14101;DHT22;7127;49.372;8.166;2023-11-21T07:37:40;13.10;61.70
14101;DHT22;7127;49.372;8.166;2023-11-21T07:40:07;13.10;61.60
14101;DHT22;7127;49.372;8.166;2023-11-21T07:42:35;13.10;61.90
14101;DHT22;7127;49.372;8.166;2023-11-21T07:45:02;13.10;61.90
14101;DHT22;7127;49.372;8.166;2023-11-21T07:47:28;13.10;61.90
14101;DHT22;7127;49.372;8.166;2023-11-21T07:49:56;13.10;62.00
14101;DHT22;7127;49.372;8.166;2023-11-21T07:52:23;13.10;62.00
14101;DHT22;7127;49.372;8.166;2023-11-21T07:54:50;13.10;61.90
14101;DHT22;7127;49.372;8.166;2023-11-21T07:57:17;13.10;62.00
14101;DHT22;7127;49.372;8.166;2023-11-21T07:59:44;13.10;61.80
14101;DHT22;7127;49.372;8.166;2023-11-21T08:02:10;13.10;61.80
14101;DHT22;7127;49.372;8.166;2023-11-21T08:04:37;13.10;61.90
14101;DHT22;7127;49.372;8.166;2023-11-21T08:07:05;13.10;61.90
14101;DHT22;7127;49.372;8.166;2023-11-21T08:09:32;13.20;61.90
14101;DHT22;7127;49.372;8.166;2023-11-21T08:12:00;13.30;61.90
14101;DHT22;7127;49.372;8.166;2023-11-21T08:14:28;13.20;61.80
14101;DHT22;7127;49.372;8.166;2023-11-21T08:16:55;13.30;61.90
14101;DHT22;7127;49.372;8.166;2023-11-21T08:19:23;13.30;61.90
14101;DHT22;7127;49.372;8.166;2023-11-21T08:21:50;13.30;61.80
14101;DHT22;7127;49.372;8.166;2023-11-21T08:24:21;13.30;61.80
14101;DHT22;7127;49.372;8.166;2023-11-21T08:26:48;13.30;61.70
14101;DHT22;7127;49.372;8.166;2023-11-21T08:29:15;13.40;61.70
14101;DHT22;7127;49.372;8.166;2023-11-21T08:31:42;13.40;61.70
14101;DHT22;7127;49.372;8.166;2023-11-21T08:34:10;13.40;61.70
14101;DHT22;7127;49.372;8.166;2023-11-21T08:36:41;13.40;61.60
14101;DHT22;7127;49.372;8.166;2023-11-21T08:39:08;13.50;61.60
14101;DHT22;7127;49.372;8.166;2023-11-21T08:41:36;13.50;61.60
14101;DHT22;7127;49.372;8.166;2023-11-21T08:44:03;13.50;61.60
14101;DHT22;7127;49.372;8.166;2023-11-21T08:46:32;13.50;61.60
14101;DHT22;7127;49.372;8.166;2023-11-21T08:49:00;13.50;61.50
14101;DHT22;7127;49.372;8.166;2023-11-21T08:51:27;13.50;61.50
14101;DHT22;7127;49.372;8.166;2023-11-21T08:53:54;13.60;61.50
14101;DHT22;7127;49.372;8.166;2023-11-21T08:56:24;13.60;61.40
14101;DHT22;7127;49.372;8.166;2023-11-21T08:58:52;13.60;61.00
14101;DHT22;7127;49.372;8.166;2023-11-21T09:01:19;13.60;61.00
14101;DHT22;7127;49.372;8.166;2023-11-21T09:03:46;13.60;61.00
14101;DHT22;7127;49.372;8.166;2023-11-21T09:06:13;13.60;61.10
14101;DHT22;7127;49.372;8.166;2023-11-21T09:08:40;13.80;61.00
14101;DHT22;7127;49.372;8.166;2023-11-21T09:11:07;13.70;60.90
14101;DHT22;7127;49.372;8.166;2023-11-21T09:13:34;13.70;61.00
14101;DHT22;7127;49.372;8.166;2023-11-21T09:16:03;13.70;61.10
14101;DHT22;7127;49.372;8.166;2023-11-21T09:18:31;13.70;61.10
14101;DHT22;7127;49.372;8.166;2023-11-21T09:20:58;13.70;61.20
14101;DHT22;7127;49.372;8.166;2023-11-21T09:23:24;13.70;61.10
14101;DHT22;7127;49.372;8.166;2023-11-21T09:25:51;13.70;61.10
14101;DHT22;7127;49.372;8.166;2023-11-21T09:28:22;13.80;61.50
14101;DHT22;7127;49.372;8.166;2023-11-21T09:30:49;13.80;61.50
14101;DHT22;7127;49.372;8.166;2023-11-21T09:33:17;13.80;61.40
14101;DHT22;7127;49.372;8.166;2023-11-21T09:35:44;13.80;61.70
14101;DHT22;7127;49.372;8.166;2023-11-21T09:38:10;13.80;61.70
14101;DHT22;7127;49.372;8.166;2023-11-21T09:40:37;13.80;61.60
14101;DHT22;7127;49.372;8.166;2023-11-21T09:43:06;13.80;61.90
14101;DHT22;7127;49.372;8.166;2023-11-21T09:45:35;13.80;61.70
14101;DHT22;7127;49.372;8.166;2023-11-21T09:48:02;13.90;61.80
14101;DHT22;7127;49.372;8.166;2023-11-21T09:50:32;13.90;61.70
14101;DHT22;7127;49.372;8.166;2023-11-21T09:53:09;13.90;61.70
14101;DHT22;7127;49.372;8.166;2023-11-21T09:55:42;13.90;61.80
14101;DHT22;7127;49.372;8.166;2023-11-21T09:58:10;13.80;61.80
14101;DHT22;7127;49.372;8.166;2023-11-21T10:00:40;13.80;61.90
14101;DHT22;7127;49.372;8.166;2023-11-21T10:03:07;13.80;61.70
14101;DHT22;7127;49.372;8.166;2023-11-21T10:05:36;13.80;61.90
14101;DHT22;7127;49.372;8.166;2023-11-21T10:08:05;13.80;61.90
14101;DHT22;7127;49.372;8.166;2023-11-21T10:10:33;13.80;62.00
14101;DHT22;7127;49.372;8.166;2023-11-21T10:13:03;13.80;62.30
14101;DHT22;7127;49.372;8.166;2023-11-21T10:15:33;13.70;62.20
14101;DHT22;7127;49.372;8.166;2023-11-21T10:18:02;13.70;62.20
14101;DHT22;7127;49.372;8.166;2023-11-21T10:20:29;13.60;62.20
14101;DHT22;7127;49.372;8.166;2023-11-21T10:22:57;13.70;62.40
14101;DHT22;7127;49.372;8.166;2023-11-21T10:25:24;13.70;62.60
14101;DHT22;7127;49.372;8.166;2023-11-21T10:27:57;13.70;62.80
14101;DHT22;7127;49.372;8.166;2023-11-21T10:30:28;13.70;62.90
14101;DHT22;7127;49.372;8.166;2023-11-21T10:32:59;13.70;62.90
14101;DHT22;7127;49.372;8.166;2023-11-21T10:35:39;13.80;62.90
14101;DHT22;7127;49.372;8.166;2023-11-21T10:38:08;13.70;63.00
14101;DHT22;7127;49.372;8.166;2023-11-21T10:40:38;13.70;62.80
14101;DHT22;7127;49.372;8.166;2023-11-21T10:43:07;13.70;62.70
14101;DHT22;7127;49.372;8.166;2023-11-21T10:45:35;13.70;62.70
14101;DHT22;7127;49.372;8.166;2023-11-21T10:48:05;13.60;62.70
14101;DHT22;7127;49.372;8.166;2023-11-21T10:50:32;13.70;62.90
14101;DHT22;7127;49.372;8.166;2023-11-21T10:53:01;13.70;63.20
14101;DHT22;7127;49.372;8.166;2023-11-21T10:55:31;13.70;63.40
14101;DHT22;7127;49.372;8.166;2023-11-21T10:57:59;13.70;63.40
14101;DHT22;7127;49.372;8.166;2023-11-21T11:00:27;13.70;63.40
14101;DHT22;7127;49.372;8.166;2023-11-21T11:02:55;13.80;63.40
14101;DHT22;7127;49.372;8.166;2023-11-21T11:05:23;13.80;63.30
14101;DHT22;7127;49.372;8.166;2023-11-21T11:07:52;13.80;63.40
14101;DHT22;7127;49.372;8.166;2023-11-21T11:10:25;13.70;63.40
14101;DHT22;7127;49.372;8.166;2023-11-21T11:12:54;13.70;63.20
14101;DHT22;7127;49.372;8.166;2023-11-21T11:15:21;13.70;63.40
14101;DHT22;7127;49.372;8.166;2023-11-21T11:17:48;13.70;63.70
14101;DHT22;7127;49.372;8.166;2023-11-21T11:20:16;13.70;63.10
14101;DHT22;7127;49.372;8.166;2023-11-21T11:22:50;13.70;63.10
14101;DHT22;7127;49.372;8.166;2023-11-21T11:25:30;13.60;62.90
14101;DHT22;7127;49.372;8.166;2023-11-21T11:28:06;13.60;63.30
14101;DHT22;7127;49.372;8.166;2023-11-21T11:30:41;13.50;63.10
14101;DHT22;7127;49.372;8.166;2023-11-21T11:33:16;13.50;63.20
14101;DHT22;7127;49.372;8.166;2023-11-21T11:35:55;13.50;63.40
14101;DHT22;7127;49.372;8.166;2023-11-21T11:38:23;13.50;63.60
14101;DHT22;7127;49.372;8.166;2023-11-21T11:40:53;13.50;63.60
14101;DHT22;7127;49.372;8.166;2023-11-21T11:43:26;13.50;63.40
14101;DHT22;7127;49.372;8.166;2023-11-21T11:45:55;13.60;64.40
14101;DHT22;7127;49.372;8.166;2023-11-21T11:48:23;13.60;63.60
14101;DHT22;7127;49.372;8.166;2023-11-21T11:51:10;13.60;63.30
14101;DHT22;7127;49.372;8.166;2023-11-21T11:53:40;13.70;63.40
14101;DHT22;7127;49.372;8.166;2023-11-21T11:56:27;13.70;63.30
14101;DHT22;7127;49.372;8.166;2023-11-21T11:58:59;13.80;63.40
14101;DHT22;7127;49.372;8.166;2023-11-21T12:01:28;13.80;63.10
14101;DHT22;7127;49.372;8.166;2023-11-21T12:04:26;13.80;62.80
14101;DHT22;7127;49.372;8.166;2023-11-21T12:07:00;13.90;61.80
14101;DHT22;7127;49.372;8.166;2023-11-21T12:09:30;13.90;62.20
14101;DHT22;7127;49.372;8.166;2023-11-21T12:11:58;13.90;62.20
14101;DHT22;7127;49.372;8.166;2023-11-21T12:14:26;13.90;62.30
14101;DHT22;7127;49.372;8.166;2023-11-21T12:16:54;14.00;62.30
14101;DHT22;7127;49.372;8.166;2023-11-21T12:19:21;14.10;62.30
14101;DHT22;7127;49.372;8.166;2023-11-21T12:21:49;14.10;62.20
14101;DHT22;7127;49.372;8.166;2023-11-21T12:24:16;14.10;61.70
14101;DHT22;7127;49.372;8.166;2023-11-21T12:26:43;14.10;62.00
14101;DHT22;7127;49.372;8.166;2023-11-21T12:29:10;14.20;62.00
14101;DHT22;7127;49.372;8.166;2023-11-21T12:31:38;14.20;61.80
14101;DHT22;7127;49.372;8.166;2023-11-21T12:34:06;14.20;61.50
14101;DHT22;7127;49.372;8.166;2023-11-21T12:36:34;14.30;61.70
14101;DHT22;7127;49.372;8.166;2023-11-21T12:39:02;14.10;61.00
14101;DHT22;7127;49.372;8.166;2023-11-21T12:41:29;14.30;61.40
14101;DHT22;7127;49.372;8.166;2023-11-21T12:43:57;14.30;61.20
14101;DHT22;7127;49.372;8.166;2023-11-21T12:46:24;14.40;61.00
14101;DHT22;7127;49.372;8.166;2023-11-21T12:48:55;14.40;61.10
14101;DHT22;7127;49.372;8.166;2023-11-21T12:51:23;14.50;61.90
14101;DHT22;7127;49.372;8.166;2023-11-21T12:53:50;14.50;61.00
14101;DHT22;7127;49.372;8.166;2023-11-21T12:56:18;14.50;60.90
14101;DHT22;7127;49.372;8.166;2023-11-21T12:58:49;14.60;60.90
14101;DHT22;7127;49.372;8.166;2023-11-21T13:01:18;14.60;60.80
14101;DHT22;7127;49.372;8.166;2023-11-21T13:03:47;14.70;60.60
14101;DHT22;7127;49.372;8.166;2023-11-21T13:06:18;14.70;60.20
14101;DHT22;7127;49.372;8.166;2023-11-21T13:08:50;14.70;60.40
14101;DHT22;7127;49.372;8.166;2023-11-21T13:11:17;14.80;60.70
14101;DHT22;7127;49.372;8.166;2023-11-21T13:13:44;14.80;60.70
14101;DHT22;7127;49.372;8.166;2023-11-21T13:16:11;14.80;60.70
14101;DHT22;7127;49.372;8.166;2023-11-21T13:18:38;14.90;60.50
14101;DHT22;7127;49.372;8.166;2023-11-21T13:21:08;14.80;60.20
14101;DHT22;7127;49.372;8.166;2023-11-21T13:23:42;14.90;60.30
14101;DHT22;7127;49.372;8.166;2023-11-21T13:26:11;14.90;60.20
14101;DHT22;7127;49.372;8.166;2023-11-21T13:28:40;14.90;60.30
14101;DHT22;7127;49.372;8.166;2023-11-21T13:31:11;14.90;60.20
14101;DHT22;7127;49.372;8.166;2023-11-21T13:33:46;15.00;60.10
14101;DHT22;7127;49.372;8.166;2023-11-21T13:36:17;15.00;60.20
14101;DHT22;7127;49.372;8.166;2023-11-21T13:38:49;14.90;60.30
14101;DHT22;7127;49.372;8.166;2023-11-21T13:41:16;15.10;60.00
14101;DHT22;7127;49.372;8.166;2023-11-21T13:43:43;15.00;59.70
14101;DHT22;7127;49.372;8.166;2023-11-21T13:46:16;15.00;59.70
14101;DHT22;7127;49.372;8.166;2023-11-21T13:48:47;15.00;59.70
14101;DHT22;7127;49.372;8.166;2023-11-21T13:51:16;15.10;59.80
14101;DHT22;7127;49.372;8.166;2023-11-21T13:53:43;15.10;59.80
14101;DHT22;7127;49.372;8.166;2023-11-21T13:56:14;15.10;58.70
14101;DHT22;7127;49.372;8.166;2023-11-21T13:58:45;15.00;58.00
14101;DHT22;7127;49.372;8.166;2023-11-21T14:01:16;15.00;58.30
14101;DHT22;7127;49.372;8.166;2023-11-21T14:04:08;15.00;58.30
14101;DHT22;7127;49.372;8.166;2023-11-21T14:06:45;15.00;58.20
14101;DHT22;7127;49.372;8.166;2023-11-21T14:09:13;15.00;58.50
14101;DHT22;7127;49.372;8.166;2023-11-21T14:11:49;15.00;58.00
14101;DHT22;7127;49.372;8.166;2023-11-21T14:14:18;15.00;57.80
14101;DHT22;7127;49.372;8.166;2023-11-21T14:16:45;15.00;58.00
14101;DHT22;7127;49.372;8.166;2023-11-21T14:19:12;15.00;58.10
14101;DHT22;7127;49.372;8.166;2023-11-21T14:21:42;15.00;58.00
14101;DHT22;7127;49.372;8.166;2023-11-21T14:24:10;15.00;58.20
14101;DHT22;7127;49.372;8.166;2023-11-21T14:26:39;15.00;58.10
14101;DHT22;7127;49.372;8.166;2023-11-21T14:29:07;15.00;58.00
14101;DHT22;7127;49.372;8.166;2023-11-21T14:31:36;15.00;58.00
14101;DHT22;7127;49.372;8.166;2023-11-21T14:34:03;15.00;57.70
14101;DHT22;7127;49.372;8.166;2023-11-21T14:36:31;15.00;57.90
14101;DHT22;7127;49.372;8.166;2023-11-21T14:38:58;14.90;57.70
14101;DHT22;7127;49.372;8.166;2023-11-21T14:41:25;14.90;57.70
14101;DHT22;7127;49.372;8.166;2023-11-21T14:43:53;14.90;57.80
14101;DHT22;7127;49.372;8.166;2023-11-21T14:46:22;14.90;58.40
14101;DHT22;7127;49.372;8.166;2023-11-21T14:48:49;14.90;57.90
14101;DHT22;7127;49.372;8.166;2023-11-21T14:51:24;14.80;57.90
14101;DHT22;7127;49.372;8.166;2023-11-21T14:53:57;14.90;58.10
14101;DHT22;7127;49.372;8.166;2023-11-21T14:56:31;14.80;57.90
14101;DHT22;7127;49.372;8.166;2023-11-21T14:59:00;14.80;57.90
14101;DHT22;7127;49.372;8.166;2023-11-21T15:01:32;14.80;58.00
14101;DHT22;7127;49.372;8.166;2023-11-21T15:04:10;14.80;58.00
14101;DHT22;7127;49.372;8.166;2023-11-21T15:06:46;14.80;57.90
14101;DHT22;7127;49.372;8.166;2023-11-21T15:09:13;14.80;57.80
14101;DHT22;7127;49.372;8.166;2023-11-21T15:12:00;14.70;58.20
14101;DHT22;7127;49.372;8.166;2023-11-21T15:14:38;14.60;57.70
14101;DHT22;7127;49.372;8.166;2023-11-21T15:17:06;14.60;57.70
14101;DHT22;7127;49.372;8.166;2023-11-21T15:19:33;14.60;57.90
14101;DHT22;7127;49.372;8.166;2023-11-21T15:22:01;14.50;57.80
14101;DHT22;7127;49.372;8.166;2023-11-21T15:24:27;14.50;57.70
14101;DHT22;7127;49.372;8.166;2023-11-21T15:26:54;14.40;57.50
14101;DHT22;7127;49.372;8.166;2023-11-21T15:29:21;14.40;57.50
14101;DHT22;7127;49.372;8.166;2023-11-21T15:31:48;14.30;57.50
14101;DHT22;7127;49.372;8.166;2023-11-21T15:34:16;14.30;57.50
14101;DHT22;7127;49.372;8.166;2023-11-21T15:36:43;14.30;57.80
14101;DHT22;7127;49.372;8.166;2023-11-21T15:39:10;14.30;57.70
14101;DHT22;7127;49.372;8.166;2023-11-21T15:41:37;14.20;57.80
14101;DHT22;7127;49.372;8.166;2023-11-21T15:44:05;14.20;57.90
14101;DHT22;7127;49.372;8.166;2023-11-21T15:46:34;14.20;58.00
14101;DHT22;7127;49.372;8.166;2023-11-21T15:49:01;14.10;57.90
14101;DHT22;7127;49.372;8.166;2023-11-21T15:51:31;14.10;58.00